createdAt,value
2023-01-22T00:01:16.486Z,1.20
2023-01-22T00:03:46.838Z,1.20
2023-01-22T00:06:16.076Z,1.20
2023-01-22T00:08:44.125Z,1.10
2023-01-22T00:11:12.882Z,1.10
2023-01-22T00:13:41.411Z,1.20
2023-01-22T00:16:11.284Z,1.20
2023-01-22T00:18:40.972Z,1.20
2023-01-22T00:21:09.366Z,1.20
2023-01-22T00:23:38.602Z,1.20
2023-01-22T00:26:10.988Z,1.20
2023-01-22T00:28:41.551Z,1.20
2023-01-22T00:31:12.915Z,1.20
2023-01-22T00:33:44.359Z,1.20
2023-01-22T00:36:16.847Z,1.20
2023-01-22T00:38:45.402Z,1.20
2023-01-22T00:41:14.665Z,1.20
2023-01-22T00:43:42.823Z,1.20
2023-01-22T00:46:14.306Z,1.20
2023-01-22T00:48:45.244Z,1.20
2023-01-22T00:51:14.931Z,1.20
2023-01-22T00:53:43.855Z,1.20
2023-01-22T00:56:14.500Z,1.20
2023-01-22T00:58:44.586Z,1.20
2023-01-22T01:01:15.494Z,1.20
2023-01-22T01:03:44.801Z,1.20
2023-01-22T01:06:17.072Z,1.20
2023-01-22T01:08:49.264Z,1.20
2023-01-22T01:11:22.103Z,1.20
2023-01-22T01:13:52.432Z,1.10
2023-01-22T01:16:24.682Z,1.20
2023-01-22T01:18:54.082Z,1.10
2023-01-22T01:21:22.065Z,1.10
2023-01-22T01:23:49.937Z,1.10
2023-01-22T01:26:18.437Z,1.20
2023-01-22T01:28:46.540Z,1.20
2023-01-22T01:31:17.702Z,1.10
2023-01-22T01:33:46.861Z,1.10
2023-01-22T01:36:30.662Z,1.20
2023-01-22T01:39:07.313Z,1.10
2023-01-22T01:41:35.338Z,1.20
2023-01-22T01:44:16.751Z,1.20
2023-01-22T01:46:50.844Z,1.20
2023-01-22T01:49:27.453Z,1.20
2023-01-22T01:52:03.314Z,1.20
2023-01-22T01:54:32.341Z,1.20
2023-01-22T01:57:09.440Z,1.20
2023-01-22T01:59:38.083Z,1.20
2023-01-22T02:02:06.309Z,1.20
2023-01-22T02:04:34.399Z,1.20
2023-01-22T02:07:05.269Z,1.20
2023-01-22T02:09:34.501Z,1.10
2023-01-22T02:12:04.269Z,1.20
2023-01-22T02:14:35.903Z,1.10
2023-01-22T02:17:11.465Z,1.10
2023-01-22T02:19:39.695Z,1.10
2023-01-22T02:22:14.509Z,1.10
2023-01-22T02:24:42.698Z,1.20
2023-01-22T02:27:11.712Z,1.10
2023-01-22T02:29:40.902Z,1.10
2023-01-22T02:32:11.412Z,1.20
2023-01-22T02:34:39.715Z,1.20
2023-01-22T02:37:07.970Z,1.20
2023-01-22T02:39:37.454Z,1.20
2023-01-22T02:42:08.478Z,1.20
2023-01-22T02:44:37.505Z,1.20
2023-01-22T02:47:07.166Z,1.20
2023-01-22T02:49:35.371Z,1.20
2023-01-22T02:52:03.376Z,1.10
2023-01-22T02:54:32.116Z,1.20
2023-01-22T02:57:01.653Z,1.20
2023-01-22T02:59:29.734Z,1.10
2023-01-22T03:01:58.216Z,1.20
2023-01-22T03:04:28.828Z,1.20
2023-01-22T03:06:56.840Z,1.20
2023-01-22T03:09:28.501Z,1.10
2023-01-22T03:11:57.138Z,1.10
2023-01-22T03:14:48.558Z,1.10
2023-01-22T03:17:34.647Z,1.10
2023-01-22T03:20:20.569Z,1.20
2023-01-22T03:22:49.377Z,1.10
2023-01-22T03:25:17.429Z,1.10
2023-01-22T03:28:00.614Z,1.10
2023-01-22T03:30:30.875Z,1.20
2023-01-22T03:32:59.335Z,1.20
2023-01-22T03:35:28.043Z,1.20
2023-01-22T03:38:06.129Z,1.20
2023-01-22T03:40:35.471Z,1.10
2023-01-22T03:43:03.652Z,1.10
2023-01-22T03:45:35.273Z,1.00
2023-01-22T03:48:05.808Z,1.10
2023-01-22T03:50:38.391Z,1.00
2023-01-22T03:53:07.120Z,1.00
2023-01-22T03:55:35.114Z,1.10
2023-01-22T03:58:04.103Z,1.10
2023-01-22T04:00:33.587Z,1.10
2023-01-22T04:03:04.855Z,1.10
2023-01-22T04:05:38.900Z,1.10
2023-01-22T04:08:07.545Z,1.10
2023-01-22T04:10:37.435Z,1.10
2023-01-22T04:13:05.753Z,1.10
2023-01-22T04:15:35.062Z,1.20
2023-01-22T04:18:09.036Z,1.20
2023-01-22T04:20:52.234Z,1.20
2023-01-22T04:23:32.506Z,1.20
2023-01-22T04:26:03.324Z,1.20
2023-01-22T04:28:31.733Z,1.20
2023-01-22T04:31:04.018Z,1.20
2023-01-22T04:33:41.817Z,1.20
2023-01-22T04:36:15.992Z,1.20
2023-01-22T04:38:43.967Z,1.20
2023-01-22T04:41:11.918Z,1.20
2023-01-22T04:43:39.873Z,1.20
2023-01-22T04:46:09.295Z,1.20
2023-01-22T04:48:37.958Z,1.20
2023-01-22T04:51:06.562Z,1.20
2023-01-22T04:53:34.936Z,1.20
2023-01-22T04:56:04.646Z,1.20
2023-01-22T04:58:33.197Z,1.20
2023-01-22T05:01:01.721Z,1.20
2023-01-22T05:03:32.354Z,1.20
2023-01-22T05:06:04.307Z,1.30
2023-01-22T05:08:34.593Z,1.20
2023-01-22T05:11:04.206Z,1.10
2023-01-22T05:13:44.094Z,1.20
2023-01-22T05:16:12.173Z,1.20
2023-01-22T05:18:41.638Z,1.20
2023-01-22T05:21:09.779Z,1.20
2023-01-22T05:23:38.640Z,1.20
2023-01-22T05:26:08.303Z,1.20
2023-01-22T05:28:50.523Z,1.20
2023-01-22T05:31:29.844Z,1.20
2023-01-22T05:34:04.855Z,1.20
2023-01-22T05:36:32.951Z,1.30
2023-01-22T05:39:06.893Z,1.20
2023-01-22T05:41:36.175Z,1.20
2023-01-22T05:44:05.267Z,1.20
2023-01-22T05:46:33.674Z,1.20
2023-01-22T05:49:21.366Z,1.20
2023-01-22T05:51:51.068Z,1.30
2023-01-22T05:54:19.591Z,1.30
2023-01-22T05:56:49.244Z,1.30
2023-01-22T05:59:17.937Z,1.20
2023-01-22T06:01:52.143Z,1.20
2023-01-22T06:04:21.432Z,1.20
2023-01-22T06:06:50.178Z,1.30
2023-01-22T06:09:21.873Z,1.30
2023-01-22T06:11:50.849Z,1.30
2023-01-22T06:14:18.950Z,1.30
2023-01-22T06:16:46.962Z,1.30
2023-01-22T06:19:34.667Z,1.30
2023-01-22T06:22:02.704Z,1.30
2023-01-22T06:24:57.068Z,1.30
2023-01-22T06:27:28.995Z,1.30
2023-01-22T06:30:01.104Z,1.30
2023-01-22T06:32:29.968Z,1.20
2023-01-22T06:35:01.274Z,1.20
2023-01-22T06:37:29.934Z,1.30
2023-01-22T06:39:58.386Z,1.30
2023-01-22T06:42:33.848Z,1.20
2023-01-22T06:45:01.841Z,1.30
2023-01-22T06:47:32.201Z,1.30
2023-01-22T06:50:01.813Z,1.30
2023-01-22T06:52:29.755Z,1.20
2023-01-22T06:54:57.799Z,1.20
2023-01-22T06:57:26.883Z,1.20
2023-01-22T06:59:55.496Z,1.20
2023-01-22T07:02:23.673Z,1.20
2023-01-22T07:04:51.673Z,1.20
2023-01-22T07:07:20.951Z,1.20
2023-01-22T07:09:48.960Z,1.10
2023-01-22T07:12:16.869Z,1.10
2023-01-22T07:14:44.782Z,1.10
2023-01-22T07:17:12.684Z,1.10
2023-01-22T07:19:40.589Z,1.10
2023-01-22T07:22:08.505Z,1.20
2023-01-22T07:24:37.777Z,1.20
2023-01-22T07:27:05.687Z,1.20
2023-01-22T07:29:33.589Z,1.20
2023-01-22T07:32:01.530Z,1.30
2023-01-22T07:34:29.395Z,1.20
2023-01-22T07:36:57.300Z,1.20
2023-01-22T07:39:25.241Z,1.20
2023-01-22T07:41:54.548Z,1.20
2023-01-22T07:44:22.555Z,1.20
2023-01-22T07:46:50.594Z,1.20
2023-01-22T07:49:18.608Z,1.20
2023-01-22T07:51:46.565Z,1.30
2023-01-22T07:54:15.822Z,1.20
2023-01-22T07:56:46.655Z,1.20
2023-01-22T07:59:15.926Z,1.20
2023-01-22T08:01:43.880Z,1.30
2023-01-22T08:04:11.804Z,1.30
2023-01-22T08:06:39.707Z,1.30
2023-01-22T08:09:07.632Z,1.20
2023-01-22T08:11:35.563Z,1.20
2023-01-22T08:14:03.678Z,1.20
2023-01-22T08:16:33.150Z,1.20
2023-01-22T08:19:01.049Z,1.10
2023-01-22T08:21:28.963Z,1.20
2023-01-22T08:23:56.918Z,1.30
2023-01-22T08:26:24.878Z,1.30
2023-01-22T08:28:52.768Z,1.30
2023-01-22T08:31:27.887Z,1.30
2023-01-22T08:33:59.620Z,1.30
2023-01-22T08:36:28.340Z,1.30
2023-01-22T08:38:56.827Z,1.30
2023-01-22T08:41:25.647Z,1.30
2023-01-22T08:43:53.832Z,1.30
2023-01-22T08:46:21.899Z,1.30
2023-01-22T08:48:50.738Z,1.30
2023-01-22T08:51:22.613Z,1.30
2023-01-22T08:53:51.005Z,1.30
2023-01-22T08:56:18.922Z,1.30
2023-01-22T08:58:50.957Z,1.30
2023-01-22T09:01:21.455Z,1.30
2023-01-22T09:03:49.608Z,1.30
2023-01-22T09:06:18.832Z,1.30
2023-01-22T09:08:46.806Z,1.30
2023-01-22T09:11:14.758Z,1.30
2023-01-22T09:13:42.710Z,1.40
2023-01-22T09:16:10.995Z,1.40
2023-01-22T09:18:39.993Z,1.30
2023-01-22T09:21:09.065Z,1.40
2023-01-22T09:23:38.327Z,1.40
2023-01-22T09:26:06.422Z,1.50
2023-01-22T09:28:36.145Z,1.50
2023-01-22T09:31:04.602Z,1.50
2023-01-22T09:33:32.675Z,1.50
2023-01-22T09:36:10.012Z,1.50
2023-01-22T09:38:39.597Z,1.50
2023-01-22T09:41:19.738Z,1.50
2023-01-22T09:43:53.132Z,1.50
2023-01-22T09:46:29.924Z,1.50
2023-01-22T09:49:08.290Z,1.50
2023-01-22T09:51:36.719Z,1.50
2023-01-22T09:54:08.778Z,1.50
2023-01-22T09:56:42.740Z,1.50
2023-01-22T09:59:17.924Z,1.60
2023-01-22T10:01:52.754Z,1.60
2023-01-22T10:04:38.451Z,1.60
2023-01-22T10:07:17.343Z,1.60
2023-01-22T10:09:53.398Z,1.60
2023-01-22T10:12:21.306Z,1.60
2023-01-22T10:14:51.819Z,1.60
2023-01-22T10:17:25.325Z,1.50
2023-01-22T10:19:58.750Z,1.60
2023-01-22T10:22:28.647Z,1.70
2023-01-22T10:24:58.484Z,1.70
2023-01-22T10:27:36.263Z,1.70
2023-01-22T10:30:19.888Z,1.60
2023-01-22T10:33:00.234Z,1.60
2023-01-22T10:35:30.760Z,1.60
2023-01-22T10:38:00.975Z,1.60
2023-01-22T10:40:37.999Z,1.60
2023-01-22T10:43:11.910Z,1.60
2023-01-22T10:45:50.875Z,1.60
2023-01-22T10:48:20.127Z,1.60
2023-01-22T10:51:01.134Z,1.70
2023-01-22T10:53:34.125Z,1.70
2023-01-22T10:56:07.584Z,1.70
2023-01-22T10:58:40.623Z,1.70
2023-01-22T11:01:28.408Z,1.70
2023-01-22T11:03:56.419Z,1.70
2023-01-22T11:06:33.449Z,1.70
2023-01-22T11:09:08.855Z,1.70
2023-01-22T11:11:44.058Z,1.80
2023-01-22T11:14:19.458Z,1.70
2023-01-22T11:16:54.936Z,1.70
2023-01-22T11:19:36.915Z,1.80
2023-01-22T11:22:17.971Z,1.80
2023-01-22T11:24:47.357Z,1.70
2023-01-22T11:27:45.358Z,1.70
2023-01-22T11:30:38.410Z,1.80
2023-01-22T11:33:22.871Z,1.80
2023-01-22T11:35:59.365Z,1.80
2023-01-22T11:38:39.732Z,1.70
2023-01-22T11:41:41.108Z,1.80
2023-01-22T11:44:50.141Z,1.70
2023-01-22T11:47:50.799Z,1.70
2023-01-22T11:50:29.058Z,1.70
2023-01-22T11:53:16.594Z,1.70
2023-01-22T11:56:18.148Z,1.70
2023-01-22T11:58:56.825Z,1.70
2023-01-22T12:01:49.892Z,1.70
2023-01-22T12:04:54.941Z,1.80
2023-01-22T12:07:45.086Z,1.80
2023-01-22T12:10:55.621Z,1.80
2023-01-22T12:13:51.625Z,1.80
2023-01-22T12:16:32.569Z,1.80
2023-01-22T12:19:35.680Z,1.80
2023-01-22T12:22:12.631Z,1.80
2023-01-22T12:24:48.227Z,1.80
2023-01-22T12:27:25.256Z,1.80
2023-01-22T12:30:01.720Z,1.80
2023-01-22T12:32:34.684Z,1.80
2023-01-22T12:35:08.866Z,1.90
2023-01-22T12:37:43.953Z,1.90
2023-01-22T12:40:34.299Z,1.90
2023-01-22T12:43:04.248Z,1.80
2023-01-22T12:45:45.398Z,1.80
2023-01-22T12:48:26.951Z,1.80
2023-01-22T12:50:58.809Z,1.80
2023-01-22T12:53:30.254Z,1.90
2023-01-22T12:56:02.605Z,1.90
2023-01-22T12:58:33.987Z,1.80
2023-01-22T13:01:07.523Z,1.80
2023-01-22T13:03:37.821Z,1.70
2023-01-22T13:06:20.853Z,1.70
2023-01-22T13:08:48.944Z,1.70
2023-01-22T13:11:30.864Z,1.80
2023-01-22T13:14:15.086Z,1.80
2023-01-22T13:16:54.509Z,1.80
2023-01-22T13:19:26.750Z,1.80
2023-01-22T13:21:58.666Z,1.70
2023-01-22T13:24:26.896Z,1.80
2023-01-22T13:26:59.969Z,1.70
2023-01-22T13:29:32.846Z,1.70
2023-01-22T13:32:03.864Z,1.70
2023-01-22T13:34:33.445Z,1.70
2023-01-22T13:37:01.360Z,1.70
2023-01-22T13:39:32.527Z,1.70
2023-01-22T13:42:04.909Z,1.60
2023-01-22T13:44:36.580Z,1.60
2023-01-22T13:47:05.874Z,1.60
2023-01-22T13:49:43.242Z,1.60
2023-01-22T13:52:19.700Z,1.60
2023-01-22T13:54:59.849Z,1.70
2023-01-22T13:57:27.827Z,1.60
2023-01-22T13:59:58.102Z,1.70
2023-01-22T14:02:31.061Z,1.60
2023-01-22T14:05:00.615Z,1.70
2023-01-22T14:07:31.269Z,1.60
2023-01-22T14:10:14.780Z,1.70
2023-01-22T14:12:43.164Z,1.70
2023-01-22T14:15:20.848Z,1.70
2023-01-22T14:17:50.586Z,1.70
2023-01-22T14:20:21.024Z,1.70
2023-01-22T14:22:49.525Z,1.70
2023-01-22T14:25:17.835Z,1.70
2023-01-22T14:27:48.649Z,1.70
2023-01-22T14:30:20.824Z,1.70
2023-01-22T14:32:48.912Z,1.70
2023-01-22T14:35:21.839Z,1.70
2023-01-22T14:37:50.517Z,1.60
2023-01-22T14:40:21.562Z,1.60
2023-01-22T14:42:50.367Z,1.60
2023-01-22T14:45:21.052Z,1.50
2023-01-22T14:47:52.211Z,1.60
2023-01-22T14:50:22.674Z,1.60
2023-01-22T14:52:51.946Z,1.60
2023-01-22T14:55:21.431Z,1.50
2023-01-22T14:57:49.383Z,1.60
2023-01-22T15:00:20.301Z,1.60
2023-01-22T15:02:48.367Z,1.60
2023-01-22T15:05:16.700Z,1.60
2023-01-22T15:07:45.949Z,1.50
2023-01-22T15:10:14.114Z,1.50
2023-01-22T15:12:48.009Z,1.60
2023-01-22T15:15:16.476Z,1.60
2023-01-22T15:17:44.457Z,1.60
2023-01-22T15:20:13.161Z,1.60
2023-01-22T15:22:41.082Z,1.60
2023-01-22T15:25:11.211Z,1.60
2023-01-22T15:27:39.368Z,1.60
2023-01-22T15:30:09.285Z,1.50
2023-01-22T15:32:37.207Z,1.50
2023-01-22T15:35:05.784Z,1.60
2023-01-22T15:37:33.696Z,1.60
2023-01-22T15:40:02.205Z,1.60
2023-01-22T15:42:31.483Z,1.60
2023-01-22T15:44:59.653Z,1.60
2023-01-22T15:47:27.566Z,1.50
2023-01-22T15:49:55.481Z,1.50
2023-01-22T15:52:23.414Z,1.50
2023-01-22T15:54:54.434Z,1.50
2023-01-22T15:57:22.339Z,1.50
2023-01-22T15:59:51.620Z,1.50
2023-01-22T16:02:19.579Z,1.40
2023-01-22T16:04:47.489Z,1.40
2023-01-22T16:07:15.771Z,1.40
2023-01-22T16:09:43.656Z,1.40
2023-01-22T16:12:11.775Z,1.50
2023-01-22T16:14:40.152Z,1.40
2023-01-22T16:17:09.457Z,1.40
2023-01-22T16:19:37.618Z,1.40
2023-01-22T16:22:05.667Z,1.40
2023-01-22T16:24:34.003Z,1.40
2023-01-22T16:27:01.921Z,1.40
2023-01-22T16:29:29.837Z,1.50
2023-01-22T16:31:58.065Z,1.40
2023-01-22T16:34:27.342Z,1.50
2023-01-22T16:36:57.520Z,1.40
2023-01-22T16:39:25.844Z,1.40
2023-01-22T16:41:54.292Z,1.40
2023-01-22T16:44:26.278Z,1.30
2023-01-22T16:46:57.660Z,1.30
2023-01-22T16:49:29.928Z,1.40
2023-01-22T16:52:05.090Z,1.40
2023-01-22T16:54:39.962Z,1.40
2023-01-22T16:57:09.685Z,1.40
2023-01-22T16:59:39.545Z,1.40
2023-01-22T17:02:14.834Z,1.40
2023-01-22T17:04:44.704Z,1.40
2023-01-22T17:07:27.473Z,1.40
2023-01-22T17:10:00.823Z,1.50
2023-01-22T17:12:28.824Z,1.50
2023-01-22T17:14:56.784Z,1.50
2023-01-22T17:17:24.764Z,1.50
2023-01-22T17:19:54.034Z,1.50
2023-01-22T17:22:22.096Z,1.40
2023-01-22T17:24:50.027Z,1.40
2023-01-22T17:27:19.058Z,1.40
2023-01-22T17:29:47.039Z,1.40
2023-01-22T17:32:15.023Z,1.40
2023-01-22T17:34:43.009Z,1.40
2023-01-22T17:37:13.581Z,1.30
2023-01-22T17:39:43.022Z,1.40
2023-01-22T17:42:11.008Z,1.40
2023-01-22T17:44:40.328Z,1.40
2023-01-22T17:47:08.368Z,1.40
2023-01-22T17:49:36.613Z,1.40
2023-01-22T17:52:04.727Z,1.40
2023-01-22T17:54:34.040Z,1.40
2023-01-22T17:57:02.118Z,1.40
2023-01-22T17:59:30.130Z,1.50
2023-01-22T18:01:58.226Z,1.50
2023-01-22T18:04:26.730Z,1.40
2023-01-22T18:06:54.710Z,1.40
2023-01-22T18:09:22.765Z,1.50
2023-01-22T18:11:52.043Z,1.50
2023-01-22T18:14:22.874Z,1.50
2023-01-22T18:16:52.027Z,1.40
2023-01-22T18:19:23.076Z,1.40
2023-01-22T18:21:51.366Z,1.30
2023-01-22T18:24:22.962Z,1.30
2023-01-22T18:26:54.276Z,1.30
2023-01-22T18:29:22.226Z,1.40
2023-01-22T18:31:50.358Z,1.40
2023-01-22T18:34:18.331Z,1.40
2023-01-22T18:36:46.245Z,1.30
2023-01-22T18:39:17.780Z,1.30
2023-01-22T18:41:47.446Z,1.30
2023-01-22T18:44:19.483Z,1.40
2023-01-22T18:46:51.661Z,1.40
2023-01-22T18:49:20.332Z,1.40
2023-01-22T18:51:49.170Z,1.40
2023-01-22T18:54:17.990Z,1.40
2023-01-22T18:56:47.254Z,1.40
2023-01-22T18:59:17.368Z,1.40
2023-01-22T19:01:51.204Z,1.40
2023-01-22T19:04:22.097Z,1.40
2023-01-22T19:06:56.916Z,1.50
2023-01-22T19:09:26.944Z,1.50
2023-01-22T19:11:55.514Z,1.50
2023-01-22T19:14:25.015Z,1.50
2023-01-22T19:16:54.234Z,1.50
2023-01-22T19:19:22.983Z,1.50
2023-01-22T19:21:56.067Z,1.50
2023-01-22T19:24:27.872Z,1.50
2023-01-22T19:26:58.975Z,1.50
2023-01-22T19:29:28.329Z,1.50
2023-01-22T19:31:57.371Z,1.60
2023-01-22T19:34:28.677Z,1.60
2023-01-22T19:37:01.163Z,1.60
2023-01-22T19:39:30.701Z,1.60
2023-01-22T19:42:01.951Z,1.50
2023-01-22T19:44:33.329Z,1.50
2023-01-22T19:47:02.341Z,1.40
2023-01-22T19:49:31.088Z,1.40
2023-01-22T19:51:59.680Z,1.40
2023-01-22T19:54:28.079Z,1.40
2023-01-22T19:56:56.038Z,1.40
2023-01-22T19:59:25.209Z,1.50
2023-01-22T20:01:54.724Z,1.50
2023-01-22T20:04:26.737Z,1.50
2023-01-22T20:06:59.110Z,1.40
2023-01-22T20:09:27.109Z,1.40
2023-01-22T20:11:58.019Z,1.40
2023-01-22T20:14:31.777Z,1.40
2023-01-22T20:17:02.655Z,1.40
2023-01-22T20:19:31.738Z,1.40
2023-01-22T20:22:02.826Z,1.40
2023-01-22T20:24:30.932Z,1.50
2023-01-22T20:26:59.121Z,1.40
2023-01-22T20:29:27.334Z,1.40
2023-01-22T20:31:56.758Z,1.40
2023-01-22T20:34:26.873Z,1.40
2023-01-22T20:36:54.804Z,1.40
2023-01-22T20:39:22.861Z,1.40
2023-01-22T20:41:50.855Z,1.40
2023-01-22T20:44:19.056Z,1.40
2023-01-22T20:46:48.721Z,1.40
2023-01-22T20:49:16.736Z,1.50
2023-01-22T20:51:46.126Z,1.50
2023-01-22T20:54:14.868Z,1.50
2023-01-22T20:56:42.957Z,1.50
2023-01-22T20:59:13.934Z,1.50
2023-01-22T21:01:42.113Z,1.50
2023-01-22T21:04:13.299Z,1.50
2023-01-22T21:06:42.434Z,1.50
2023-01-22T21:09:12.384Z,1.60
2023-01-22T21:11:42.514Z,1.60
2023-01-22T21:14:17.759Z,1.50
2023-01-22T21:16:46.256Z,1.50
2023-01-22T21:19:18.171Z,1.50
2023-01-22T21:21:47.266Z,1.50
2023-01-22T21:24:16.951Z,1.50
2023-01-22T21:26:45.789Z,1.50
2023-01-22T21:29:17.256Z,1.50
2023-01-22T21:31:48.892Z,1.50
2023-01-22T21:34:18.725Z,1.50
2023-01-22T21:36:49.661Z,1.50
2023-01-22T21:39:21.912Z,1.60
2023-01-22T21:41:49.980Z,1.60
2023-01-22T21:44:38.476Z,1.50
2023-01-22T21:47:06.831Z,1.60
2023-01-22T21:49:36.033Z,1.60
2023-01-22T21:52:07.804Z,1.60
2023-01-22T21:54:41.113Z,1.60
2023-01-22T21:57:13.852Z,1.60
2023-01-22T21:59:42.418Z,1.60
2023-01-22T22:02:16.066Z,1.60
2023-01-22T22:04:44.337Z,1.60
2023-01-22T22:07:12.829Z,1.60
2023-01-22T22:09:44.172Z,1.60
2023-01-22T22:12:12.472Z,1.60
2023-01-22T22:14:40.388Z,1.60
2023-01-22T22:17:08.609Z,1.60
2023-01-22T22:19:36.561Z,1.60
2023-01-22T22:22:04.524Z,1.60
2023-01-22T22:24:32.423Z,1.60
2023-01-22T22:27:01.657Z,1.60
2023-01-22T22:29:29.541Z,1.60
2023-01-22T22:31:57.466Z,1.60
2023-01-22T22:34:25.385Z,1.60
2023-01-22T22:36:53.307Z,1.60
2023-01-22T22:39:21.208Z,1.60
2023-01-22T22:41:49.164Z,1.60
2023-01-22T22:44:18.376Z,1.60
2023-01-22T22:46:46.327Z,1.60
2023-01-22T22:49:14.975Z,1.60
2023-01-22T22:51:44.777Z,1.60
2023-01-22T22:54:16.767Z,1.70
2023-01-22T22:56:46.088Z,1.60
2023-01-22T22:59:18.689Z,1.60
2023-01-22T23:01:48.684Z,1.60
2023-01-22T23:04:17.434Z,1.60
2023-01-22T23:06:46.712Z,1.50
2023-01-22T23:09:19.388Z,1.50
2023-01-22T23:11:51.480Z,1.50
2023-01-22T23:14:19.856Z,1.60
2023-01-22T23:16:50.155Z,1.60
2023-01-22T23:19:21.699Z,1.60
2023-01-22T23:21:51.807Z,1.50
2023-01-22T23:24:19.929Z,1.60
2023-01-22T23:26:48.437Z,1.60
2023-01-22T23:29:20.331Z,1.60
2023-01-22T23:31:50.229Z,1.60
2023-01-22T23:34:22.802Z,1.60
2023-01-22T23:36:52.413Z,1.60
2023-01-22T23:39:22.673Z,1.60
2023-01-22T23:41:51.185Z,1.60
2023-01-22T23:44:19.255Z,1.60
2023-01-22T23:46:48.583Z,1.60
2023-01-22T23:49:16.535Z,1.60
2023-01-22T23:51:45.128Z,1.60
2023-01-22T23:54:13.371Z,1.60
2023-01-22T23:56:41.345Z,1.60
2023-01-22T23:59:11.275Z,1.70
